sensor_id;sensor_type;location;lat;lon;timestamp;P1;durP1;ratioP1;P2;durP2;ratioP2
58460;SDS011;45558;37.752;-97.822;2022-12-18T00:01:33;41.40;;;22.50;;
58460;SDS011;45558;37.752;-97.822;2022-12-18T00:04:02;46.38;;;24.73;;
58460;SDS011;45558;37.752;-97.822;2022-12-18T00:06:29;40.88;;;20.60;;
58460;SDS011;45558;37.752;-97.822;2022-12-18T00:08:56;47.40;;;25.00;;
58460;SDS011;45558;37.752;-97.822;2022-12-18T00:11:24;50.15;;;25.95;;
58460;SDS011;45558;37.752;-97.822;2022-12-18T00:13:53;30.63;;;14.27;;
58460;SDS011;45558;37.752;-97.822;2022-12-18T00:16:21;60.47;;;26.40;;
58460;SDS011;45558;37.752;-97.822;2022-12-18T00:18:51;41.20;;;21.20;;
58460;SDS011;45558;37.752;-97.822;2022-12-18T00:21:19;36.13;;;17.63;;
58460;SDS011;45558;37.752;-97.822;2022-12-18T00:23:45;45.65;;;26.50;;
58460;SDS011;45558;37.752;-97.822;2022-12-18T00:26:14;171.70;;;111.53;;
58460;SDS011;45558;37.752;-97.822;2022-12-18T00:28:41;29.08;;;15.82;;
58460;SDS011;45558;37.752;-97.822;2022-12-18T00:31:08;26.42;;;14.35;;
58460;SDS011;45558;37.752;-97.822;2022-12-18T00:33:35;30.17;;;12.98;;
58460;SDS011;45558;37.752;-97.822;2022-12-18T00:36:05;26.90;;;11.10;;
58460;SDS011;45558;37.752;-97.822;2022-12-18T00:38:36;42.15;;;21.00;;
58460;SDS011;45558;37.752;-97.822;2022-12-18T00:41:02;31.65;;;15.48;;
58460;SDS011;45558;37.752;-97.822;2022-12-18T00:43:28;31.10;;;14.45;;
58460;SDS011;45558;37.752;-97.822;2022-12-18T00:45:54;37.40;;;17.13;;
58460;SDS011;45558;37.752;-97.822;2022-12-18T00:48:20;36.38;;;18.92;;
58460;SDS011;45558;37.752;-97.822;2022-12-18T00:50:49;24.92;;;12.75;;
58460;SDS011;45558;37.752;-97.822;2022-12-18T00:53:15;19.17;;;7.90;;
58460;SDS011;45558;37.752;-97.822;2022-12-18T00:55:41;25.70;;;8.23;;
58460;SDS011;45558;37.752;-97.822;2022-12-18T00:58:08;23.60;;;11.15;;
58460;SDS011;45558;37.752;-97.822;2022-12-18T01:00:35;16.27;;;8.18;;
58460;SDS011;45558;37.752;-97.822;2022-12-18T01:03:01;28.73;;;14.95;;
58460;SDS011;45558;37.752;-97.822;2022-12-18T01:05:27;51.30;;;24.70;;
58460;SDS011;45558;37.752;-97.822;2022-12-18T01:07:53;73.93;;;35.60;;
58460;SDS011;45558;37.752;-97.822;2022-12-18T01:10:20;79.03;;;35.47;;
58460;SDS011;45558;37.752;-97.822;2022-12-18T01:12:45;103.53;;;48.55;;
58460;SDS011;45558;37.752;-97.822;2022-12-18T01:15:12;41.45;;;19.17;;
58460;SDS011;45558;37.752;-97.822;2022-12-18T01:17:38;26.42;;;11.55;;
58460;SDS011;45558;37.752;-97.822;2022-12-18T01:20:04;22.30;;;8.50;;
58460;SDS011;45558;37.752;-97.822;2022-12-18T01:22:31;13.38;;;5.97;;
58460;SDS011;45558;37.752;-97.822;2022-12-18T01:24:56;20.02;;;7.35;;
58460;SDS011;45558;37.752;-97.822;2022-12-18T01:27:22;11.95;;;6.45;;
58460;SDS011;45558;37.752;-97.822;2022-12-18T01:29:48;13.95;;;5.70;;
58460;SDS011;45558;37.752;-97.822;2022-12-18T01:32:14;13.75;;;6.30;;
58460;SDS011;45558;37.752;-97.822;2022-12-18T01:34:40;28.92;;;9.43;;
58460;SDS011;45558;37.752;-97.822;2022-12-18T01:37:06;16.17;;;4.22;;
58460;SDS011;45558;37.752;-97.822;2022-12-18T01:39:32;43.10;;;12.90;;
58460;SDS011;45558;37.752;-97.822;2022-12-18T01:42:19;22.98;;;7.85;;
58460;SDS011;45558;37.752;-97.822;2022-12-18T01:44:55;30.38;;;9.57;;
58460;SDS011;45558;37.752;-97.822;2022-12-18T01:47:35;26.40;;;7.75;;
58460;SDS011;45558;37.752;-97.822;2022-12-18T01:52:37;12.80;;;5.90;;
58460;SDS011;45558;37.752;-97.822;2022-12-18T01:55:04;19.60;;;6.85;;
58460;SDS011;45558;37.752;-97.822;2022-12-18T01:57:31;24.70;;;7.93;;
58460;SDS011;45558;37.752;-97.822;2022-12-18T01:59:59;15.32;;;4.45;;
58460;SDS011;45558;37.752;-97.822;2022-12-18T02:02:28;27.83;;;11.13;;
58460;SDS011;45558;37.752;-97.822;2022-12-18T02:04:54;24.60;;;9.05;;
58460;SDS011;45558;37.752;-97.822;2022-12-18T02:10:11;12.25;;;5.18;;
58460;SDS011;45558;37.752;-97.822;2022-12-18T02:12:42;16.58;;;5.28;;
58460;SDS011;45558;37.752;-97.822;2022-12-18T02:15:33;33.78;;;15.18;;
58460;SDS011;45558;37.752;-97.822;2022-12-18T02:18:26;10.38;;;3.35;;
58460;SDS011;45558;37.752;-97.822;2022-12-18T02:20:57;30.85;;;11.63;;
58460;SDS011;45558;37.752;-97.822;2022-12-18T02:23:56;23.83;;;6.80;;
58460;SDS011;45558;37.752;-97.822;2022-12-18T02:29:21;14.57;;;4.85;;
58460;SDS011;45558;37.752;-97.822;2022-12-18T02:31:50;25.35;;;7.25;;
58460;SDS011;45558;37.752;-97.822;2022-12-18T02:34:18;28.23;;;5.47;;
58460;SDS011;45558;37.752;-97.822;2022-12-18T02:36:45;20.42;;;3.88;;
58460;SDS011;45558;37.752;-97.822;2022-12-18T02:39:11;16.52;;;2.65;;
58460;SDS011;45558;37.752;-97.822;2022-12-18T02:41:37;9.93;;;2.67;;
58460;SDS011;45558;37.752;-97.822;2022-12-18T02:44:08;21.70;;;3.47;;
58460;SDS011;45558;37.752;-97.822;2022-12-18T02:46:36;14.38;;;3.40;;
58460;SDS011;45558;37.752;-97.822;2022-12-18T02:51:53;10.80;;;3.17;;
58460;SDS011;45558;37.752;-97.822;2022-12-18T02:57:04;10.10;;;1.50;;
58460;SDS011;45558;37.752;-97.822;2022-12-18T02:59:49;6.38;;;1.30;;
58460;SDS011;45558;37.752;-97.822;2022-12-18T03:05:01;8.00;;;1.50;;
58460;SDS011;45558;37.752;-97.822;2022-12-18T03:07:42;9.95;;;2.38;;
58460;SDS011;45558;37.752;-97.822;2022-12-18T03:10:19;12.73;;;3.83;;
58460;SDS011;45558;37.752;-97.822;2022-12-18T03:12:51;7.28;;;1.83;;
58460;SDS011;45558;37.752;-97.822;2022-12-18T03:15:23;8.82;;;1.58;;
58460;SDS011;45558;37.752;-97.822;2022-12-18T03:18:02;9.77;;;1.83;;
58460;SDS011;45558;37.752;-97.822;2022-12-18T03:20:34;10.00;;;1.60;;
58460;SDS011;45558;37.752;-97.822;2022-12-18T03:23:11;13.65;;;2.33;;
58460;SDS011;45558;37.752;-97.822;2022-12-18T03:29:03;10.00;;;3.35;;
58460;SDS011;45558;37.752;-97.822;2022-12-18T03:33:59;11.25;;;2.05;;
58460;SDS011;45558;37.752;-97.822;2022-12-18T03:36:26;15.73;;;2.78;;
58460;SDS011;45558;37.752;-97.822;2022-12-18T03:38:52;7.70;;;2.08;;
58460;SDS011;45558;37.752;-97.822;2022-12-18T03:44:09;7.15;;;2.13;;
58460;SDS011;45558;37.752;-97.822;2022-12-18T03:50:29;10.27;;;2.95;;
58460;SDS011;45558;37.752;-97.822;2022-12-18T03:52:37;14.73;;;4.15;;
58460;SDS011;45558;37.752;-97.822;2022-12-18T03:55:05;19.80;;;5.07;;
58460;SDS011;45558;37.752;-97.822;2022-12-18T03:57:32;17.23;;;4.03;;
58460;SDS011;45558;37.752;-97.822;2022-12-18T04:00:10;15.10;;;3.20;;
58460;SDS011;45558;37.752;-97.822;2022-12-18T04:02:38;5.40;;;2.65;;
58460;SDS011;45558;37.752;-97.822;2022-12-18T04:05:10;15.70;;;3.65;;
58460;SDS011;45558;37.752;-97.822;2022-12-18T04:07:36;6.65;;;1.60;;
58460;SDS011;45558;37.752;-97.822;2022-12-18T04:10:03;8.63;;;2.67;;
58460;SDS011;45558;37.752;-97.822;2022-12-18T04:12:32;8.25;;;1.38;;
58460;SDS011;45558;37.752;-97.822;2022-12-18T04:14:57;4.30;;;1.60;;
58460;SDS011;45558;37.752;-97.822;2022-12-18T04:17:23;13.35;;;1.00;;
58460;SDS011;45558;37.752;-97.822;2022-12-18T04:19:49;8.23;;;1.05;;
58460;SDS011;45558;37.752;-97.822;2022-12-18T04:22:15;12.68;;;1.58;;
58460;SDS011;45558;37.752;-97.822;2022-12-18T04:24:41;13.30;;;1.10;;
58460;SDS011;45558;37.752;-97.822;2022-12-18T04:27:07;8.02;;;1.00;;
58460;SDS011;45558;37.752;-97.822;2022-12-18T04:29:32;10.15;;;1.38;;
58460;SDS011;45558;37.752;-97.822;2022-12-18T04:31:58;3.53;;;0.80;;
58460;SDS011;45558;37.752;-97.822;2022-12-18T04:34:24;9.32;;;1.55;;
58460;SDS011;45558;37.752;-97.822;2022-12-18T04:36:49;3.90;;;1.00;;
58460;SDS011;45558;37.752;-97.822;2022-12-18T04:39:15;10.32;;;1.33;;
58460;SDS011;45558;37.752;-97.822;2022-12-18T04:41:41;9.13;;;1.35;;
58460;SDS011;45558;37.752;-97.822;2022-12-18T04:44:07;6.88;;;1.17;;
58460;SDS011;45558;37.752;-97.822;2022-12-18T04:46:32;8.95;;;1.67;;
58460;SDS011;45558;37.752;-97.822;2022-12-18T04:48:58;7.78;;;1.08;;
58460;SDS011;45558;37.752;-97.822;2022-12-18T04:51:24;5.30;;;2.05;;
58460;SDS011;45558;37.752;-97.822;2022-12-18T04:53:50;8.20;;;1.40;;
58460;SDS011;45558;37.752;-97.822;2022-12-18T04:56:15;21.48;;;1.98;;
58460;SDS011;45558;37.752;-97.822;2022-12-18T04:58:42;3.20;;;0.93;;
58460;SDS011;45558;37.752;-97.822;2022-12-18T05:01:09;7.72;;;2.70;;
58460;SDS011;45558;37.752;-97.822;2022-12-18T05:03:35;7.15;;;1.67;;
58460;SDS011;45558;37.752;-97.822;2022-12-18T05:06:02;3.35;;;1.33;;
58460;SDS011;45558;37.752;-97.822;2022-12-18T05:08:28;7.00;;;1.73;;
58460;SDS011;45558;37.752;-97.822;2022-12-18T05:13:28;9.73;;;1.50;;
58460;SDS011;45558;37.752;-97.822;2022-12-18T05:15:55;9.00;;;2.10;;
58460;SDS011;45558;37.752;-97.822;2022-12-18T05:18:21;10.35;;;1.77;;
58460;SDS011;45558;37.752;-97.822;2022-12-18T05:20:48;6.65;;;1.65;;
58460;SDS011;45558;37.752;-97.822;2022-12-18T05:23:14;10.48;;;2.88;;
58460;SDS011;45558;37.752;-97.822;2022-12-18T05:25:40;8.15;;;2.38;;
58460;SDS011;45558;37.752;-97.822;2022-12-18T05:28:06;9.50;;;2.40;;
58460;SDS011;45558;37.752;-97.822;2022-12-18T05:30:31;10.15;;;3.45;;
58460;SDS011;45558;37.752;-97.822;2022-12-18T05:32:57;9.85;;;3.65;;
58460;SDS011;45558;37.752;-97.822;2022-12-18T05:35:23;7.05;;;2.78;;
58460;SDS011;45558;37.752;-97.822;2022-12-18T05:37:48;9.63;;;3.95;;
58460;SDS011;45558;37.752;-97.822;2022-12-18T05:40:14;13.50;;;3.95;;
58460;SDS011;45558;37.752;-97.822;2022-12-18T05:42:40;12.13;;;4.05;;
58460;SDS011;45558;37.752;-97.822;2022-12-18T05:45:05;13.10;;;4.15;;
58460;SDS011;45558;37.752;-97.822;2022-12-18T05:47:31;12.90;;;4.80;;
58460;SDS011;45558;37.752;-97.822;2022-12-18T05:49:57;9.32;;;3.88;;
58460;SDS011;45558;37.752;-97.822;2022-12-18T05:52:23;13.88;;;4.10;;
58460;SDS011;45558;37.752;-97.822;2022-12-18T05:54:49;14.50;;;3.95;;
58460;SDS011;45558;37.752;-97.822;2022-12-18T05:57:15;12.70;;;4.55;;
58460;SDS011;45558;37.752;-97.822;2022-12-18T05:59:41;10.98;;;4.57;;
58460;SDS011;45558;37.752;-97.822;2022-12-18T06:02:06;12.00;;;5.05;;
58460;SDS011;45558;37.752;-97.822;2022-12-18T06:04:32;10.02;;;4.80;;
58460;SDS011;45558;37.752;-97.822;2022-12-18T06:06:58;12.45;;;5.82;;
58460;SDS011;45558;37.752;-97.822;2022-12-18T06:09:23;13.27;;;5.45;;
58460;SDS011;45558;37.752;-97.822;2022-12-18T06:11:51;11.65;;;4.95;;
58460;SDS011;45558;37.752;-97.822;2022-12-18T06:14:17;11.45;;;4.70;;
58460;SDS011;45558;37.752;-97.822;2022-12-18T06:16:43;18.63;;;4.93;;
58460;SDS011;45558;37.752;-97.822;2022-12-18T06:19:13;14.98;;;4.40;;
58460;SDS011;45558;37.752;-97.822;2022-12-18T06:21:41;17.38;;;5.25;;
58460;SDS011;45558;37.752;-97.822;2022-12-18T06:24:06;13.27;;;5.50;;
58460;SDS011;45558;37.752;-97.822;2022-12-18T06:26:32;14.90;;;4.93;;
58460;SDS011;45558;37.752;-97.822;2022-12-18T06:28:59;16.67;;;5.60;;
58460;SDS011;45558;37.752;-97.822;2022-12-18T06:31:25;11.20;;;5.47;;
58460;SDS011;45558;37.752;-97.822;2022-12-18T06:33:51;11.40;;;5.13;;
58460;SDS011;45558;37.752;-97.822;2022-12-18T06:36:16;9.20;;;4.03;;
58460;SDS011;45558;37.752;-97.822;2022-12-18T06:38:42;16.23;;;5.40;;
58460;SDS011;45558;37.752;-97.822;2022-12-18T06:41:15;12.10;;;4.85;;
58460;SDS011;45558;37.752;-97.822;2022-12-18T06:43:43;13.27;;;4.45;;
58460;SDS011;45558;37.752;-97.822;2022-12-18T06:46:09;14.35;;;4.22;;
58460;SDS011;45558;37.752;-97.822;2022-12-18T06:48:34;17.85;;;5.43;;
58460;SDS011;45558;37.752;-97.822;2022-12-18T06:51:00;11.25;;;3.85;;
58460;SDS011;45558;37.752;-97.822;2022-12-18T06:53:27;22.15;;;5.50;;
58460;SDS011;45558;37.752;-97.822;2022-12-18T06:55:53;13.07;;;5.20;;
58460;SDS011;45558;37.752;-97.822;2022-12-18T06:58:27;13.75;;;4.00;;
58460;SDS011;45558;37.752;-97.822;2022-12-18T07:00:53;11.75;;;3.67;;
58460;SDS011;45558;37.752;-97.822;2022-12-18T07:03:19;13.88;;;4.03;;
58460;SDS011;45558;37.752;-97.822;2022-12-18T07:05:45;14.60;;;5.10;;
58460;SDS011;45558;37.752;-97.822;2022-12-18T07:08:10;9.60;;;4.43;;
58460;SDS011;45558;37.752;-97.822;2022-12-18T07:10:43;4.20;;;3.00;;
58460;SDS011;45558;37.752;-97.822;2022-12-18T07:13:09;15.43;;;6.40;;
58460;SDS011;45558;37.752;-97.822;2022-12-18T07:15:34;11.20;;;4.45;;
58460;SDS011;45558;37.752;-97.822;2022-12-18T07:18:00;6.13;;;3.70;;
58460;SDS011;45558;37.752;-97.822;2022-12-18T07:23:48;9.20;;;4.57;;
58460;SDS011;45558;37.752;-97.822;2022-12-18T07:26:14;12.20;;;3.03;;
58460;SDS011;45558;37.752;-97.822;2022-12-18T07:28:41;11.90;;;3.17;;
58460;SDS011;45558;37.752;-97.822;2022-12-18T07:31:09;9.57;;;4.18;;
58460;SDS011;45558;37.752;-97.822;2022-12-18T07:33:37;15.48;;;4.53;;
58460;SDS011;45558;37.752;-97.822;2022-12-18T07:36:03;7.40;;;2.92;;
58460;SDS011;45558;37.752;-97.822;2022-12-18T07:38:30;9.13;;;3.28;;
58460;SDS011;45558;37.752;-97.822;2022-12-18T07:41:00;7.55;;;2.95;;
58460;SDS011;45558;37.752;-97.822;2022-12-18T07:43:27;9.88;;;3.60;;
58460;SDS011;45558;37.752;-97.822;2022-12-18T07:45:53;8.60;;;4.22;;
58460;SDS011;45558;37.752;-97.822;2022-12-18T07:48:19;5.95;;;2.97;;
58460;SDS011;45558;37.752;-97.822;2022-12-18T07:50:46;14.32;;;3.58;;
58460;SDS011;45558;37.752;-97.822;2022-12-18T07:53:11;8.98;;;3.60;;
58460;SDS011;45558;37.752;-97.822;2022-12-18T07:55:37;9.73;;;3.75;;
58460;SDS011;45558;37.752;-97.822;2022-12-18T07:58:04;6.10;;;3.38;;
58460;SDS011;45558;37.752;-97.822;2022-12-18T08:00:30;9.02;;;3.55;;
58460;SDS011;45558;37.752;-97.822;2022-12-18T08:02:56;9.25;;;3.53;;
58460;SDS011;45558;37.752;-97.822;2022-12-18T08:05:22;11.73;;;3.80;;
58460;SDS011;45558;37.752;-97.822;2022-12-18T08:07:48;10.68;;;3.05;;
58460;SDS011;45558;37.752;-97.822;2022-12-18T08:10:14;6.72;;;3.67;;
58460;SDS011;45558;37.752;-97.822;2022-12-18T08:12:40;10.57;;;3.60;;
58460;SDS011;45558;37.752;-97.822;2022-12-18T08:15:05;4.45;;;3.03;;
58460;SDS011;45558;37.752;-97.822;2022-12-18T08:17:31;11.13;;;4.53;;
58460;SDS011;45558;37.752;-97.822;2022-12-18T08:19:57;8.93;;;3.50;;
58460;SDS011;45558;37.752;-97.822;2022-12-18T08:22:23;7.93;;;3.78;;
58460;SDS011;45558;37.752;-97.822;2022-12-18T08:24:49;7.40;;;3.50;;
58460;SDS011;45558;37.752;-97.822;2022-12-18T08:27:15;12.02;;;4.22;;
58460;SDS011;45558;37.752;-97.822;2022-12-18T08:33:03;6.53;;;3.03;;
58460;SDS011;45558;37.752;-97.822;2022-12-18T08:35:29;12.30;;;5.28;;
58460;SDS011;45558;37.752;-97.822;2022-12-18T08:37:55;9.00;;;3.78;;
58460;SDS011;45558;37.752;-97.822;2022-12-18T08:40:21;8.13;;;2.97;;
58460;SDS011;45558;37.752;-97.822;2022-12-18T08:42:47;8.15;;;5.85;;
58460;SDS011;45558;37.752;-97.822;2022-12-18T08:45:30;13.55;;;7.60;;
58460;SDS011;45558;37.752;-97.822;2022-12-18T08:47:56;7.47;;;3.13;;
58460;SDS011;45558;37.752;-97.822;2022-12-18T08:50:22;4.57;;;2.90;;
58460;SDS011;45558;37.752;-97.822;2022-12-18T08:52:47;7.30;;;2.38;;
58460;SDS011;45558;37.752;-97.822;2022-12-18T08:55:13;3.60;;;2.13;;
58460;SDS011;45558;37.752;-97.822;2022-12-18T08:57:39;7.22;;;2.08;;
58460;SDS011;45558;37.752;-97.822;2022-12-18T09:00:05;4.78;;;1.83;;
58460;SDS011;45558;37.752;-97.822;2022-12-18T09:02:32;3.22;;;1.38;;
58460;SDS011;45558;37.752;-97.822;2022-12-18T09:04:57;5.53;;;1.90;;
58460;SDS011;45558;37.752;-97.822;2022-12-18T09:07:23;5.40;;;1.75;;
58460;SDS011;45558;37.752;-97.822;2022-12-18T09:09:49;4.13;;;2.25;;
58460;SDS011;45558;37.752;-97.822;2022-12-18T09:12:15;4.20;;;1.35;;
58460;SDS011;45558;37.752;-97.822;2022-12-18T09:14:40;6.18;;;2.33;;
58460;SDS011;45558;37.752;-97.822;2022-12-18T09:17:06;1.55;;;1.13;;
58460;SDS011;45558;37.752;-97.822;2022-12-18T09:19:33;2.90;;;0.98;;
58460;SDS011;45558;37.752;-97.822;2022-12-18T09:21:59;5.32;;;1.05;;
58460;SDS011;45558;37.752;-97.822;2022-12-18T09:24:24;2.88;;;1.40;;
58460;SDS011;45558;37.752;-97.822;2022-12-18T09:26:52;2.25;;;0.95;;
58460;SDS011;45558;37.752;-97.822;2022-12-18T09:29:19;1.35;;;0.85;;
58460;SDS011;45558;37.752;-97.822;2022-12-18T09:31:45;2.13;;;1.17;;
58460;SDS011;45558;37.752;-97.822;2022-12-18T09:34:11;1.30;;;0.93;;
58460;SDS011;45558;37.752;-97.822;2022-12-18T09:36:38;3.65;;;2.58;;
58460;SDS011;45558;37.752;-97.822;2022-12-18T09:39:04;2.88;;;1.52;;
58460;SDS011;45558;37.752;-97.822;2022-12-18T09:41:40;2.38;;;1.00;;
58460;SDS011;45558;37.752;-97.822;2022-12-18T09:46:40;1.65;;;1.00;;
58460;SDS011;45558;37.752;-97.822;2022-12-18T09:49:24;2.30;;;0.70;;
58460;SDS011;45558;37.752;-97.822;2022-12-18T09:52:04;1.27;;;0.70;;
58460;SDS011;45558;37.752;-97.822;2022-12-18T09:54:44;3.40;;;1.10;;
58460;SDS011;45558;37.752;-97.822;2022-12-18T09:57:33;2.13;;;1.15;;
58460;SDS011;45558;37.752;-97.822;2022-12-18T10:00:16;1.52;;;0.95;;
58460;SDS011;45558;37.752;-97.822;2022-12-18T10:02:44;2.05;;;1.08;;
58460;SDS011;45558;37.752;-97.822;2022-12-18T10:05:16;3.55;;;1.48;;
58460;SDS011;45558;37.752;-97.822;2022-12-18T10:13:57;5.13;;;2.78;;
58460;SDS011;45558;37.752;-97.822;2022-12-18T10:27:27;6.88;;;2.65;;
58460;SDS011;45558;37.752;-97.822;2022-12-18T10:29:54;13.18;;;4.85;;
58460;SDS011;45558;37.752;-97.822;2022-12-18T10:32:21;8.63;;;4.05;;
58460;SDS011;45558;37.752;-97.822;2022-12-18T10:34:48;2.92;;;1.45;;
58460;SDS011;45558;37.752;-97.822;2022-12-18T10:37:16;3.65;;;2.35;;
58460;SDS011;45558;37.752;-97.822;2022-12-18T10:39:43;5.80;;;2.10;;
58460;SDS011;45558;37.752;-97.822;2022-12-18T10:42:17;2.17;;;1.23;;
58460;SDS011;45558;37.752;-97.822;2022-12-18T10:44:43;2.90;;;1.80;;
58460;SDS011;45558;37.752;-97.822;2022-12-18T10:47:17;5.10;;;2.95;;
58460;SDS011;45558;37.752;-97.822;2022-12-18T10:49:49;2.75;;;1.70;;
58460;SDS011;45558;37.752;-97.822;2022-12-18T10:52:18;5.38;;;2.97;;
58460;SDS011;45558;37.752;-97.822;2022-12-18T10:54:48;3.88;;;2.35;;
58460;SDS011;45558;37.752;-97.822;2022-12-18T10:57:16;4.38;;;2.33;;
58460;SDS011;45558;37.752;-97.822;2022-12-18T10:59:55;3.65;;;2.30;;
58460;SDS011;45558;37.752;-97.822;2022-12-18T11:02:55;5.28;;;3.92;;
58460;SDS011;45558;37.752;-97.822;2022-12-18T11:05:24;6.95;;;3.75;;
58460;SDS011;45558;37.752;-97.822;2022-12-18T11:07:58;4.57;;;4.05;;
58460;SDS011;45558;37.752;-97.822;2022-12-18T11:10:32;4.97;;;3.13;;
58460;SDS011;45558;37.752;-97.822;2022-12-18T11:13:10;6.53;;;5.50;;
58460;SDS011;45558;37.752;-97.822;2022-12-18T11:15:44;4.13;;;3.00;;
58460;SDS011;45558;37.752;-97.822;2022-12-18T11:21:06;2.70;;;1.73;;
58460;SDS011;45558;37.752;-97.822;2022-12-18T11:23:33;5.03;;;3.42;;
58460;SDS011;45558;37.752;-97.822;2022-12-18T11:26:04;4.25;;;1.95;;
58460;SDS011;45558;37.752;-97.822;2022-12-18T11:33:35;5.60;;;1.23;;
58460;SDS011;45558;37.752;-97.822;2022-12-18T11:36:03;5.53;;;2.55;;
58460;SDS011;45558;37.752;-97.822;2022-12-18T11:38:35;5.75;;;2.05;;
58460;SDS011;45558;37.752;-97.822;2022-12-18T11:43:38;3.08;;;1.90;;
58460;SDS011;45558;37.752;-97.822;2022-12-18T11:46:09;3.92;;;1.98;;
58460;SDS011;45558;37.752;-97.822;2022-12-18T11:48:41;5.78;;;2.90;;
58460;SDS011;45558;37.752;-97.822;2022-12-18T11:51:11;4.68;;;3.08;;
58460;SDS011;45558;37.752;-97.822;2022-12-18T11:53:40;2.40;;;1.98;;
58460;SDS011;45558;37.752;-97.822;2022-12-18T12:18:19;13.18;;;6.82;;
58460;SDS011;45558;37.752;-97.822;2022-12-18T12:26:04;15.20;;;7.80;;
58460;SDS011;45558;37.752;-97.822;2022-12-18T12:32:27;9.85;;;6.22;;
58460;SDS011;45558;37.752;-97.822;2022-12-18T12:34:48;13.48;;;9.98;;
58460;SDS011;45558;37.752;-97.822;2022-12-18T12:40:07;7.43;;;5.57;;
58460;SDS011;45558;37.752;-97.822;2022-12-18T12:42:38;9.27;;;5.18;;
58460;SDS011;45558;37.752;-97.822;2022-12-18T12:45:36;17.45;;;11.65;;
58460;SDS011;45558;37.752;-97.822;2022-12-18T12:48:05;12.20;;;9.07;;
58460;SDS011;45558;37.752;-97.822;2022-12-18T12:50:33;8.63;;;5.80;;
58460;SDS011;45558;37.752;-97.822;2022-12-18T12:52:59;11.32;;;8.98;;
58460;SDS011;45558;37.752;-97.822;2022-12-18T12:55:28;14.50;;;10.95;;
58460;SDS011;45558;37.752;-97.822;2022-12-18T13:00:46;26.65;;;16.63;;
58460;SDS011;45558;37.752;-97.822;2022-12-18T13:03:24;11.05;;;6.47;;
58460;SDS011;45558;37.752;-97.822;2022-12-18T13:05:58;8.32;;;5.40;;
58460;SDS011;45558;37.752;-97.822;2022-12-18T13:08:29;12.20;;;9.13;;
58460;SDS011;45558;37.752;-97.822;2022-12-18T13:13:50;20.75;;;13.13;;
58460;SDS011;45558;37.752;-97.822;2022-12-18T13:16:21;39.03;;;25.42;;
58460;SDS011;45558;37.752;-97.822;2022-12-18T13:18:52;45.13;;;27.55;;
58460;SDS011;45558;37.752;-97.822;2022-12-18T13:21:29;51.38;;;30.23;;
58460;SDS011;45558;37.752;-97.822;2022-12-18T13:23:56;19.38;;;11.73;;
58460;SDS011;45558;37.752;-97.822;2022-12-18T13:36:44;11.23;;;7.50;;
58460;SDS011;45558;37.752;-97.822;2022-12-18T13:41:52;6.53;;;5.07;;
58460;SDS011;45558;37.752;-97.822;2022-12-18T13:44:32;9.90;;;7.43;;
58460;SDS011;45558;37.752;-97.822;2022-12-18T13:47:00;14.50;;;10.07;;
58460;SDS011;45558;37.752;-97.822;2022-12-18T13:52:40;22.80;;;17.00;;
58460;SDS011;45558;37.752;-97.822;2022-12-18T13:55:01;22.02;;;14.85;;
58460;SDS011;45558;37.752;-97.822;2022-12-18T13:57:34;22.02;;;12.63;;
58460;SDS011;45558;37.752;-97.822;2022-12-18T14:02:59;21.48;;;9.95;;
58460;SDS011;45558;37.752;-97.822;2022-12-18T14:05:26;12.00;;;6.78;;
58460;SDS011;45558;37.752;-97.822;2022-12-18T14:07:52;16.80;;;9.40;;
58460;SDS011;45558;37.752;-97.822;2022-12-18T14:10:19;12.15;;;7.43;;
58460;SDS011;45558;37.752;-97.822;2022-12-18T14:12:47;17.13;;;11.45;;
58460;SDS011;45558;37.752;-97.822;2022-12-18T14:17:55;20.13;;;12.63;;
58460;SDS011;45558;37.752;-97.822;2022-12-18T14:20:22;14.50;;;9.15;;
58460;SDS011;45558;37.752;-97.822;2022-12-18T14:22:50;10.38;;;6.20;;
58460;SDS011;45558;37.752;-97.822;2022-12-18T14:25:18;21.00;;;11.57;;
58460;SDS011;45558;37.752;-97.822;2022-12-18T14:27:50;21.23;;;11.75;;
58460;SDS011;45558;37.752;-97.822;2022-12-18T14:30:31;14.57;;;7.20;;
58460;SDS011;45558;37.752;-97.822;2022-12-18T14:35:30;23.85;;;14.63;;
58460;SDS011;45558;37.752;-97.822;2022-12-18T14:43:26;28.75;;;15.50;;
58460;SDS011;45558;37.752;-97.822;2022-12-18T14:45:54;56.60;;;28.35;;
58460;SDS011;45558;37.752;-97.822;2022-12-18T14:50:54;23.52;;;12.32;;
58460;SDS011;45558;37.752;-97.822;2022-12-18T14:53:47;27.20;;;13.60;;
58460;SDS011;45558;37.752;-97.822;2022-12-18T14:58:45;20.58;;;9.70;;
58460;SDS011;45558;37.752;-97.822;2022-12-18T15:03:51;18.67;;;11.70;;
58460;SDS011;45558;37.752;-97.822;2022-12-18T15:06:21;28.42;;;17.02;;
58460;SDS011;45558;37.752;-97.822;2022-12-18T15:08:51;19.55;;;12.15;;
58460;SDS011;45558;37.752;-97.822;2022-12-18T15:11:34;22.45;;;12.95;;
58460;SDS011;45558;37.752;-97.822;2022-12-18T15:14:22;26.67;;;16.02;;
58460;SDS011;45558;37.752;-97.822;2022-12-18T15:16:58;14.95;;;9.60;;
58460;SDS011;45558;37.752;-97.822;2022-12-18T15:19:28;22.65;;;13.05;;
58460;SDS011;45558;37.752;-97.822;2022-12-18T15:22:24;18.05;;;8.93;;
58460;SDS011;45558;37.752;-97.822;2022-12-18T15:24:52;15.43;;;7.88;;
58460;SDS011;45558;37.752;-97.822;2022-12-18T15:27:40;23.70;;;12.05;;
58460;SDS011;45558;37.752;-97.822;2022-12-18T15:32:39;16.58;;;8.07;;
58460;SDS011;45558;37.752;-97.822;2022-12-18T15:35:13;39.95;;;24.02;;
58460;SDS011;45558;37.752;-97.822;2022-12-18T15:37:41;33.25;;;20.02;;
58460;SDS011;45558;37.752;-97.822;2022-12-18T15:40:08;47.08;;;25.10;;
58460;SDS011;45558;37.752;-97.822;2022-12-18T15:42:37;47.33;;;25.13;;
58460;SDS011;45558;37.752;-97.822;2022-12-18T15:45:21;56.55;;;29.27;;
58460;SDS011;45558;37.752;-97.822;2022-12-18T15:47:47;46.65;;;24.70;;
58460;SDS011;45558;37.752;-97.822;2022-12-18T15:50:13;57.55;;;26.20;;
58460;SDS011;45558;37.752;-97.822;2022-12-18T15:52:39;47.88;;;20.48;;
58460;SDS011;45558;37.752;-97.822;2022-12-18T15:55:11;32.33;;;17.10;;
58460;SDS011;45558;37.752;-97.822;2022-12-18T15:57:56;22.92;;;10.50;;
58460;SDS011;45558;37.752;-97.822;2022-12-18T16:00:22;33.13;;;19.55;;
58460;SDS011;45558;37.752;-97.822;2022-12-18T16:02:48;18.33;;;12.02;;
58460;SDS011;45558;37.752;-97.822;2022-12-18T16:05:14;18.77;;;11.23;;
58460;SDS011;45558;37.752;-97.822;2022-12-18T16:07:42;23.63;;;12.90;;
58460;SDS011;45558;37.752;-97.822;2022-12-18T16:13:30;43.80;;;20.73;;
58460;SDS011;45558;37.752;-97.822;2022-12-18T16:15:55;24.85;;;14.40;;
58460;SDS011;45558;37.752;-97.822;2022-12-18T16:18:21;51.08;;;25.98;;
58460;SDS011;45558;37.752;-97.822;2022-12-18T16:20:47;46.80;;;24.02;;
58460;SDS011;45558;37.752;-97.822;2022-12-18T16:23:13;22.80;;;13.57;;
58460;SDS011;45558;37.752;-97.822;2022-12-18T16:25:38;28.48;;;14.20;;
58460;SDS011;45558;37.752;-97.822;2022-12-18T16:28:04;28.85;;;16.08;;
58460;SDS011;45558;37.752;-97.822;2022-12-18T16:30:30;28.58;;;17.83;;
58460;SDS011;45558;37.752;-97.822;2022-12-18T16:32:57;31.30;;;18.85;;
58460;SDS011;45558;37.752;-97.822;2022-12-18T16:35:23;29.55;;;20.08;;
58460;SDS011;45558;37.752;-97.822;2022-12-18T16:37:49;31.75;;;18.50;;
58460;SDS011;45558;37.752;-97.822;2022-12-18T16:40:15;21.85;;;12.23;;
58460;SDS011;45558;37.752;-97.822;2022-12-18T16:42:42;23.70;;;14.50;;
58460;SDS011;45558;37.752;-97.822;2022-12-18T16:45:10;14.55;;;10.48;;
58460;SDS011;45558;37.752;-97.822;2022-12-18T16:47:37;20.63;;;13.77;;
58460;SDS011;45558;37.752;-97.822;2022-12-18T16:50:03;21.38;;;13.18;;
58460;SDS011;45558;37.752;-97.822;2022-12-18T16:52:30;10.05;;;8.43;;